Jenkins, Minnesota
Current Conditions -  °F | °C
As of 10:33 AM on Saturday 25 Oct 2014 (Local Time) from KPWC Reporting Station
Clear Clear  
Wind Chill: 10°   Ceiling: Unl
Heat Index: 10°   Visibility: 10mi
Dew Point:   Wind: 9mph
Humidity: 54%   Direction: 280°W
Pressure: 30.04"   Gusts: 17mph
Location:  46.65°N, 94.33°W
Report Text: KPWC 251533Z AUTO 28008G15KT 264V324 10SM CLR 10/01 A3004 RMK AO2
Loading
Personal Weather Stations






























Interactive Weather Map
Tropical Storm Tracking
New forecast layout! Learn more

10-Day Weather Forecast

Advertisements
Track Severe Weather on mobile